KCMR

Details ICAO KCMR
Name H A CLARK MEM FLD
Region United States
Timezone America/Phoenix (UTC-7.0)
Plans Departing 0
Arriving 7
Stats Elevation 6,678 ft / 2,035 m (AMSL)
Location 35.302233° -112.194058°
Runways 1
Magnetic Variation 10.658° E
Sunrise 2017-12-13 14:30:29 UTC / 2017-12-13 07:30:29 Local
Sunset 2017-12-14 00:18:35 UTC / 2017-12-13 17:18:35 Local
Advertisement - Login to hide

Runways

ID Width Length Bearing (true) Bearing (mag) Surface Threshold Offset Overrun Length
18 100 ft / 30 m 6,007 ft / 1,831 m 192.20° 181.54° Asphalt 0 ft / 0 m 0 ft / 0 m
36 100 ft / 30 m 6,007 ft / 1,831 m 12.20° 1.54° Asphalt 0 ft / 0 m 0 ft / 0 m

Map

Weather


0- 5 10 15 20 25 30 35+ Temperature / ° C

Clouds and Precipitation
Forecast for 2017-12-13 12:00 UTC. Updated 30 minutes ago

Ground ~20,000 ft ~40,000 ft Winds

METAR

KCMR 130935Z AUTO 16008KT 10SM CLR M06/M19 A3024 RMK AO2

TAF

Not found

Frequencies

Recorded 121.12 MHz AWOS 3
Unicom 122.80 MHz CTAF/UNICOM
Warning: Do not use this data for real-world aviation or navigation. No guarantee of current accuracy is given.